sensor_id;sensor_type;location;lat;lon;timestamp;P1;durP1;ratioP1;P2;durP2;ratioP2
75090;SDS011;63674;48.048;8.306;2023-01-24T00:01:23;18.20;;;7.63;;
75090;SDS011;63674;48.048;8.306;2023-01-24T00:03:52;21.35;;;9.05;;
75090;SDS011;63674;48.048;8.306;2023-01-24T00:06:22;16.33;;;7.25;;
75090;SDS011;63674;48.048;8.306;2023-01-24T00:08:50;17.20;;;7.78;;
75090;SDS011;63674;48.048;8.306;2023-01-24T00:11:20;16.05;;;6.65;;
75090;SDS011;63674;48.048;8.306;2023-01-24T00:13:48;20.27;;;7.85;;
75090;SDS011;63674;48.048;8.306;2023-01-24T00:16:18;18.58;;;7.65;;
75090;SDS011;63674;48.048;8.306;2023-01-24T00:18:49;18.80;;;8.18;;
75090;SDS011;63674;48.048;8.306;2023-01-24T00:21:18;16.55;;;6.75;;
75090;SDS011;63674;48.048;8.306;2023-01-24T00:23:51;18.08;;;7.35;;
75090;SDS011;63674;48.048;8.306;2023-01-24T00:26:22;17.40;;;7.10;;
75090;SDS011;63674;48.048;8.306;2023-01-24T00:28:51;18.48;;;8.00;;
75090;SDS011;63674;48.048;8.306;2023-01-24T00:31:20;17.25;;;6.93;;
75090;SDS011;63674;48.048;8.306;2023-01-24T00:33:49;16.90;;;7.10;;
75090;SDS011;63674;48.048;8.306;2023-01-24T00:36:18;17.10;;;7.30;;
75090;SDS011;63674;48.048;8.306;2023-01-24T00:38:48;17.25;;;7.53;;
75090;SDS011;63674;48.048;8.306;2023-01-24T00:41:16;17.80;;;7.00;;
75090;SDS011;63674;48.048;8.306;2023-01-24T00:43:45;16.13;;;6.60;;
75090;SDS011;63674;48.048;8.306;2023-01-24T00:46:13;15.68;;;7.18;;
75090;SDS011;63674;48.048;8.306;2023-01-24T00:48:42;16.77;;;7.30;;
75090;SDS011;63674;48.048;8.306;2023-01-24T00:51:11;16.60;;;7.68;;
75090;SDS011;63674;48.048;8.306;2023-01-24T00:53:40;17.17;;;8.23;;
75090;SDS011;63674;48.048;8.306;2023-01-24T00:56:10;17.95;;;7.43;;
75090;SDS011;63674;48.048;8.306;2023-01-24T00:58:38;18.60;;;8.25;;
75090;SDS011;63674;48.048;8.306;2023-01-24T01:01:07;16.52;;;7.60;;
75090;SDS011;63674;48.048;8.306;2023-01-24T01:03:35;19.83;;;7.78;;
75090;SDS011;63674;48.048;8.306;2023-01-24T01:06:05;22.33;;;8.27;;
75090;SDS011;63674;48.048;8.306;2023-01-24T01:08:36;18.88;;;8.15;;
75090;SDS011;63674;48.048;8.306;2023-01-24T01:11:05;21.48;;;8.23;;
75090;SDS011;63674;48.048;8.306;2023-01-24T01:13:36;18.40;;;7.50;;
75090;SDS011;63674;48.048;8.306;2023-01-24T01:16:05;16.80;;;7.25;;
75090;SDS011;63674;48.048;8.306;2023-01-24T01:18:38;17.38;;;7.40;;
75090;SDS011;63674;48.048;8.306;2023-01-24T01:21:07;18.52;;;7.53;;
75090;SDS011;63674;48.048;8.306;2023-01-24T01:23:38;18.35;;;8.00;;
75090;SDS011;63674;48.048;8.306;2023-01-24T01:26:08;17.60;;;7.05;;
75090;SDS011;63674;48.048;8.306;2023-01-24T01:28:43;18.38;;;7.68;;
75090;SDS011;63674;48.048;8.306;2023-01-24T01:31:13;17.98;;;7.53;;
75090;SDS011;63674;48.048;8.306;2023-01-24T01:33:43;16.70;;;7.68;;
75090;SDS011;63674;48.048;8.306;2023-01-24T01:36:11;17.52;;;7.82;;
75090;SDS011;63674;48.048;8.306;2023-01-24T01:38:40;14.43;;;6.45;;
75090;SDS011;63674;48.048;8.306;2023-01-24T01:41:09;15.07;;;6.35;;
75090;SDS011;63674;48.048;8.306;2023-01-24T01:43:40;15.23;;;7.07;;
75090;SDS011;63674;48.048;8.306;2023-01-24T01:46:32;19.15;;;7.38;;
75090;SDS011;63674;48.048;8.306;2023-01-24T01:49:05;22.88;;;7.90;;
75090;SDS011;63674;48.048;8.306;2023-01-24T01:51:43;16.20;;;7.13;;
75090;SDS011;63674;48.048;8.306;2023-01-24T01:54:16;19.95;;;7.97;;
75090;SDS011;63674;48.048;8.306;2023-01-24T01:56:48;20.42;;;7.55;;
75090;SDS011;63674;48.048;8.306;2023-01-24T01:59:22;17.67;;;7.32;;
75090;SDS011;63674;48.048;8.306;2023-01-24T02:01:57;18.55;;;7.80;;
75090;SDS011;63674;48.048;8.306;2023-01-24T02:04:28;18.00;;;7.78;;
75090;SDS011;63674;48.048;8.306;2023-01-24T02:07:02;15.52;;;6.50;;
75090;SDS011;63674;48.048;8.306;2023-01-24T02:09:33;17.45;;;6.88;;
75090;SDS011;63674;48.048;8.306;2023-01-24T02:12:06;17.55;;;7.43;;
75090;SDS011;63674;48.048;8.306;2023-01-24T02:14:39;15.43;;;6.40;;
75090;SDS011;63674;48.048;8.306;2023-01-24T02:17:32;14.88;;;6.55;;
75090;SDS011;63674;48.048;8.306;2023-01-24T02:20:13;18.00;;;7.13;;
75090;SDS011;63674;48.048;8.306;2023-01-24T02:22:52;13.98;;;6.22;;
75090;SDS011;63674;48.048;8.306;2023-01-24T02:25:35;16.58;;;6.85;;
75090;SDS011;63674;48.048;8.306;2023-01-24T02:28:10;19.27;;;7.60;;
75090;SDS011;63674;48.048;8.306;2023-01-24T02:30:38;16.45;;;6.85;;
75090;SDS011;63674;48.048;8.306;2023-01-24T02:33:08;17.85;;;7.28;;
75090;SDS011;63674;48.048;8.306;2023-01-24T02:35:38;16.73;;;7.45;;
75090;SDS011;63674;48.048;8.306;2023-01-24T02:38:12;16.45;;;6.88;;
75090;SDS011;63674;48.048;8.306;2023-01-24T02:40:46;18.63;;;7.93;;
75090;SDS011;63674;48.048;8.306;2023-01-24T02:43:20;18.98;;;7.68;;
75090;SDS011;63674;48.048;8.306;2023-01-24T02:45:52;18.45;;;7.35;;
75090;SDS011;63674;48.048;8.306;2023-01-24T02:48:21;14.52;;;6.80;;
75090;SDS011;63674;48.048;8.306;2023-01-24T02:50:49;16.35;;;6.70;;
75090;SDS011;63674;48.048;8.306;2023-01-24T02:53:35;16.05;;;7.07;;
75090;SDS011;63674;48.048;8.306;2023-01-24T02:56:06;16.95;;;6.85;;
75090;SDS011;63674;48.048;8.306;2023-01-24T02:58:55;16.75;;;7.05;;
75090;SDS011;63674;48.048;8.306;2023-01-24T03:01:23;17.45;;;6.55;;
75090;SDS011;63674;48.048;8.306;2023-01-24T03:03:52;19.13;;;7.15;;
75090;SDS011;63674;48.048;8.306;2023-01-24T03:06:22;19.42;;;7.85;;
75090;SDS011;63674;48.048;8.306;2023-01-24T03:08:50;18.25;;;7.50;;
75090;SDS011;63674;48.048;8.306;2023-01-24T03:11:19;16.85;;;7.28;;
75090;SDS011;63674;48.048;8.306;2023-01-24T03:13:48;18.05;;;7.75;;
75090;SDS011;63674;48.048;8.306;2023-01-24T03:16:35;16.13;;;6.15;;
75090;SDS011;63674;48.048;8.306;2023-01-24T03:19:21;16.25;;;6.75;;
75090;SDS011;63674;48.048;8.306;2023-01-24T03:22:07;18.00;;;6.80;;
75090;SDS011;63674;48.048;8.306;2023-01-24T03:24:53;21.45;;;6.60;;
75090;SDS011;63674;48.048;8.306;2023-01-24T03:27:38;15.82;;;6.32;;
75090;SDS011;63674;48.048;8.306;2023-01-24T03:30:24;14.32;;;6.07;;
75090;SDS011;63674;48.048;8.306;2023-01-24T03:33:11;16.92;;;7.18;;
75090;SDS011;63674;48.048;8.306;2023-01-24T03:35:57;13.35;;;5.93;;
75090;SDS011;63674;48.048;8.306;2023-01-24T03:38:28;15.43;;;6.40;;
75090;SDS011;63674;48.048;8.306;2023-01-24T03:41:14;14.45;;;5.78;;
75090;SDS011;63674;48.048;8.306;2023-01-24T03:43:42;15.18;;;6.45;;
75090;SDS011;63674;48.048;8.306;2023-01-24T03:46:11;16.25;;;6.30;;
75090;SDS011;63674;48.048;8.306;2023-01-24T03:48:41;15.10;;;6.07;;
75090;SDS011;63674;48.048;8.306;2023-01-24T03:51:09;15.68;;;6.47;;
75090;SDS011;63674;48.048;8.306;2023-01-24T03:53:55;14.32;;;6.25;;
75090;SDS011;63674;48.048;8.306;2023-01-24T03:56:24;14.27;;;5.88;;
75090;SDS011;63674;48.048;8.306;2023-01-24T03:58:53;17.70;;;6.90;;
75090;SDS011;63674;48.048;8.306;2023-01-24T04:01:21;21.92;;;8.75;;
75090;SDS011;63674;48.048;8.306;2023-01-24T04:03:51;15.88;;;6.32;;
75090;SDS011;63674;48.048;8.306;2023-01-24T04:06:20;19.27;;;7.90;;
75090;SDS011;63674;48.048;8.306;2023-01-24T04:08:48;16.92;;;6.45;;
75090;SDS011;63674;48.048;8.306;2023-01-24T04:11:17;14.77;;;6.00;;
75090;SDS011;63674;48.048;8.306;2023-01-24T04:13:45;15.95;;;6.28;;
75090;SDS011;63674;48.048;8.306;2023-01-24T04:16:14;14.18;;;5.85;;
75090;SDS011;63674;48.048;8.306;2023-01-24T04:18:43;18.58;;;7.40;;
75090;SDS011;63674;48.048;8.306;2023-01-24T04:21:13;16.17;;;6.45;;
75090;SDS011;63674;48.048;8.306;2023-01-24T04:23:42;15.98;;;6.63;;
75090;SDS011;63674;48.048;8.306;2023-01-24T04:26:10;17.23;;;6.80;;
75090;SDS011;63674;48.048;8.306;2023-01-24T04:28:39;17.42;;;7.30;;
75090;SDS011;63674;48.048;8.306;2023-01-24T04:31:08;20.42;;;7.30;;
75090;SDS011;63674;48.048;8.306;2023-01-24T04:33:36;16.10;;;5.93;;
75090;SDS011;63674;48.048;8.306;2023-01-24T04:36:05;13.85;;;5.93;;
75090;SDS011;63674;48.048;8.306;2023-01-24T04:38:37;14.57;;;6.45;;
75090;SDS011;63674;48.048;8.306;2023-01-24T04:41:05;16.48;;;6.63;;
75090;SDS011;63674;48.048;8.306;2023-01-24T04:43:38;15.10;;;6.18;;
75090;SDS011;63674;48.048;8.306;2023-01-24T04:46:07;16.80;;;6.75;;
75090;SDS011;63674;48.048;8.306;2023-01-24T04:48:36;15.95;;;7.18;;
75090;SDS011;63674;48.048;8.306;2023-01-24T04:51:04;16.27;;;6.68;;
75090;SDS011;63674;48.048;8.306;2023-01-24T04:53:33;15.48;;;6.40;;
75090;SDS011;63674;48.048;8.306;2023-01-24T04:56:03;19.42;;;7.57;;
75090;SDS011;63674;48.048;8.306;2023-01-24T04:58:33;15.98;;;6.32;;
75090;SDS011;63674;48.048;8.306;2023-01-24T05:01:02;16.65;;;7.55;;
75090;SDS011;63674;48.048;8.306;2023-01-24T05:03:31;17.65;;;6.35;;
75090;SDS011;63674;48.048;8.306;2023-01-24T05:05:59;15.07;;;6.40;;
75090;SDS011;63674;48.048;8.306;2023-01-24T05:08:28;14.70;;;6.07;;
75090;SDS011;63674;48.048;8.306;2023-01-24T05:10:59;19.55;;;8.40;;
75090;SDS011;63674;48.048;8.306;2023-01-24T05:13:30;20.10;;;8.25;;
75090;SDS011;63674;48.048;8.306;2023-01-24T05:15:58;17.40;;;7.82;;
75090;SDS011;63674;48.048;8.306;2023-01-24T05:18:27;14.85;;;6.93;;
75090;SDS011;63674;48.048;8.306;2023-01-24T05:20:55;14.93;;;6.18;;
75090;SDS011;63674;48.048;8.306;2023-01-24T05:23:31;19.00;;;7.72;;
75090;SDS011;63674;48.048;8.306;2023-01-24T05:26:00;18.42;;;7.78;;
75090;SDS011;63674;48.048;8.306;2023-01-24T05:28:31;14.27;;;6.00;;
75090;SDS011;63674;48.048;8.306;2023-01-24T05:31:00;13.63;;;5.82;;
75090;SDS011;63674;48.048;8.306;2023-01-24T05:33:30;16.73;;;6.75;;
75090;SDS011;63674;48.048;8.306;2023-01-24T05:35:58;13.18;;;5.82;;
75090;SDS011;63674;48.048;8.306;2023-01-24T05:38:27;13.95;;;6.35;;
75090;SDS011;63674;48.048;8.306;2023-01-24T05:40:58;11.93;;;4.57;;
75090;SDS011;63674;48.048;8.306;2023-01-24T05:43:27;12.43;;;4.85;;
75090;SDS011;63674;48.048;8.306;2023-01-24T05:45:58;13.00;;;4.90;;
75090;SDS011;63674;48.048;8.306;2023-01-24T05:48:28;10.90;;;5.05;;
75090;SDS011;63674;48.048;8.306;2023-01-24T05:50:57;12.60;;;5.65;;
75090;SDS011;63674;48.048;8.306;2023-01-24T05:53:26;11.13;;;4.82;;
75090;SDS011;63674;48.048;8.306;2023-01-24T05:55:56;14.93;;;5.50;;
75090;SDS011;63674;48.048;8.306;2023-01-24T05:58:28;13.88;;;5.95;;
75090;SDS011;63674;48.048;8.306;2023-01-24T06:01:05;12.23;;;5.20;;
75090;SDS011;63674;48.048;8.306;2023-01-24T06:03:36;15.05;;;5.95;;
75090;SDS011;63674;48.048;8.306;2023-01-24T06:06:07;12.63;;;5.13;;
75090;SDS011;63674;48.048;8.306;2023-01-24T06:08:38;11.95;;;4.95;;
75090;SDS011;63674;48.048;8.306;2023-01-24T06:11:07;12.52;;;5.40;;
75090;SDS011;63674;48.048;8.306;2023-01-24T06:13:39;12.20;;;5.43;;
75090;SDS011;63674;48.048;8.306;2023-01-24T06:16:11;11.90;;;5.18;;
75090;SDS011;63674;48.048;8.306;2023-01-24T06:18:41;12.65;;;5.47;;
75090;SDS011;63674;48.048;8.306;2023-01-24T06:21:15;17.40;;;7.57;;
75090;SDS011;63674;48.048;8.306;2023-01-24T06:23:52;13.85;;;6.15;;
75090;SDS011;63674;48.048;8.306;2023-01-24T06:26:22;12.05;;;5.68;;
75090;SDS011;63674;48.048;8.306;2023-01-24T06:28:51;13.27;;;5.25;;
75090;SDS011;63674;48.048;8.306;2023-01-24T06:31:23;12.80;;;5.72;;
75090;SDS011;63674;48.048;8.306;2023-01-24T06:34:08;12.40;;;5.22;;
75090;SDS011;63674;48.048;8.306;2023-01-24T06:37:02;13.20;;;5.30;;
75090;SDS011;63674;48.048;8.306;2023-01-24T06:39:43;12.75;;;5.10;;
75090;SDS011;63674;48.048;8.306;2023-01-24T06:42:18;12.55;;;5.20;;
75090;SDS011;63674;48.048;8.306;2023-01-24T06:44:51;11.23;;;5.20;;
75090;SDS011;63674;48.048;8.306;2023-01-24T06:47:20;11.70;;;5.25;;
75090;SDS011;63674;48.048;8.306;2023-01-24T06:49:51;14.07;;;5.57;;
75090;SDS011;63674;48.048;8.306;2023-01-24T06:52:20;11.20;;;4.85;;
75090;SDS011;63674;48.048;8.306;2023-01-24T06:54:48;11.63;;;5.63;;
75090;SDS011;63674;48.048;8.306;2023-01-24T06:57:18;11.43;;;4.82;;
75090;SDS011;63674;48.048;8.306;2023-01-24T06:59:46;11.02;;;4.88;;
75090;SDS011;63674;48.048;8.306;2023-01-24T07:02:15;13.15;;;5.22;;
75090;SDS011;63674;48.048;8.306;2023-01-24T07:04:44;14.32;;;6.10;;
75090;SDS011;63674;48.048;8.306;2023-01-24T07:07:15;12.93;;;6.25;;
75090;SDS011;63674;48.048;8.306;2023-01-24T07:09:44;13.73;;;5.47;;
75090;SDS011;63674;48.048;8.306;2023-01-24T07:12:12;13.27;;;6.60;;
75090;SDS011;63674;48.048;8.306;2023-01-24T07:14:41;13.63;;;6.28;;
75090;SDS011;63674;48.048;8.306;2023-01-24T07:17:10;13.18;;;5.70;;
75090;SDS011;63674;48.048;8.306;2023-01-24T07:19:40;12.82;;;5.90;;
75090;SDS011;63674;48.048;8.306;2023-01-24T07:22:11;12.05;;;5.38;;
75090;SDS011;63674;48.048;8.306;2023-01-24T07:24:41;13.73;;;5.55;;
75090;SDS011;63674;48.048;8.306;2023-01-24T07:27:11;16.58;;;6.85;;
75090;SDS011;63674;48.048;8.306;2023-01-24T07:29:41;15.05;;;7.30;;
75090;SDS011;63674;48.048;8.306;2023-01-24T07:32:09;20.65;;;9.88;;
75090;SDS011;63674;48.048;8.306;2023-01-24T07:34:38;18.15;;;8.50;;
75090;SDS011;63674;48.048;8.306;2023-01-24T07:37:07;14.10;;;7.00;;
75090;SDS011;63674;48.048;8.306;2023-01-24T07:39:37;14.07;;;6.18;;
75090;SDS011;63674;48.048;8.306;2023-01-24T07:42:05;11.20;;;5.35;;
75090;SDS011;63674;48.048;8.306;2023-01-24T07:44:34;12.45;;;6.00;;
75090;SDS011;63674;48.048;8.306;2023-01-24T07:47:02;13.68;;;6.07;;
75090;SDS011;63674;48.048;8.306;2023-01-24T07:49:31;13.98;;;5.78;;
75090;SDS011;63674;48.048;8.306;2023-01-24T07:52:00;12.30;;;5.10;;
75090;SDS011;63674;48.048;8.306;2023-01-24T07:54:29;13.68;;;5.65;;
75090;SDS011;63674;48.048;8.306;2023-01-24T07:56:59;13.95;;;5.90;;
75090;SDS011;63674;48.048;8.306;2023-01-24T07:59:27;13.00;;;5.60;;
75090;SDS011;63674;48.048;8.306;2023-01-24T08:02:05;12.18;;;5.03;;
75090;SDS011;63674;48.048;8.306;2023-01-24T08:04:35;14.38;;;6.13;;
75090;SDS011;63674;48.048;8.306;2023-01-24T08:07:04;12.90;;;5.70;;
75090;SDS011;63674;48.048;8.306;2023-01-24T08:09:45;13.18;;;6.20;;
75090;SDS011;63674;48.048;8.306;2023-01-24T08:12:20;12.38;;;5.38;;
75090;SDS011;63674;48.048;8.306;2023-01-24T08:14:49;14.05;;;5.45;;
75090;SDS011;63674;48.048;8.306;2023-01-24T08:17:17;12.57;;;5.30;;
75090;SDS011;63674;48.048;8.306;2023-01-24T08:19:46;11.45;;;4.85;;
75090;SDS011;63674;48.048;8.306;2023-01-24T08:22:23;12.82;;;5.75;;
75090;SDS011;63674;48.048;8.306;2023-01-24T08:24:52;11.13;;;5.00;;
75090;SDS011;63674;48.048;8.306;2023-01-24T08:27:22;13.65;;;6.10;;
75090;SDS011;63674;48.048;8.306;2023-01-24T08:29:50;12.88;;;6.00;;
75090;SDS011;63674;48.048;8.306;2023-01-24T08:32:19;14.63;;;6.80;;
75090;SDS011;63674;48.048;8.306;2023-01-24T08:34:48;14.63;;;6.05;;
75090;SDS011;63674;48.048;8.306;2023-01-24T08:37:17;11.95;;;5.43;;
75090;SDS011;63674;48.048;8.306;2023-01-24T08:39:45;13.52;;;5.53;;
75090;SDS011;63674;48.048;8.306;2023-01-24T08:42:14;14.02;;;6.15;;
75090;SDS011;63674;48.048;8.306;2023-01-24T08:44:44;12.52;;;5.60;;
75090;SDS011;63674;48.048;8.306;2023-01-24T08:47:12;12.63;;;5.40;;
75090;SDS011;63674;48.048;8.306;2023-01-24T08:49:41;12.57;;;5.65;;
75090;SDS011;63674;48.048;8.306;2023-01-24T08:52:09;14.65;;;5.60;;
75090;SDS011;63674;48.048;8.306;2023-01-24T08:54:38;15.45;;;8.00;;
75090;SDS011;63674;48.048;8.306;2023-01-24T08:57:09;13.45;;;6.07;;
75090;SDS011;63674;48.048;8.306;2023-01-24T08:59:38;12.60;;;5.57;;
75090;SDS011;63674;48.048;8.306;2023-01-24T09:02:09;14.77;;;6.53;;
75090;SDS011;63674;48.048;8.306;2023-01-24T09:04:41;12.02;;;5.72;;
75090;SDS011;63674;48.048;8.306;2023-01-24T09:07:09;11.27;;;4.93;;
75090;SDS011;63674;48.048;8.306;2023-01-24T09:09:38;11.40;;;5.13;;
75090;SDS011;63674;48.048;8.306;2023-01-24T09:12:07;10.48;;;4.68;;
75090;SDS011;63674;48.048;8.306;2023-01-24T09:14:36;12.10;;;5.40;;
75090;SDS011;63674;48.048;8.306;2023-01-24T09:17:04;15.20;;;7.03;;
75090;SDS011;63674;48.048;8.306;2023-01-24T09:19:34;11.25;;;5.60;;
75090;SDS011;63674;48.048;8.306;2023-01-24T09:22:03;12.18;;;5.78;;
75090;SDS011;63674;48.048;8.306;2023-01-24T09:24:31;11.55;;;4.90;;
75090;SDS011;63674;48.048;8.306;2023-01-24T09:27:00;12.10;;;5.22;;
75090;SDS011;63674;48.048;8.306;2023-01-24T09:29:28;11.40;;;5.15;;
75090;SDS011;63674;48.048;8.306;2023-01-24T09:31:57;13.48;;;5.97;;
75090;SDS011;63674;48.048;8.306;2023-01-24T09:34:26;13.40;;;5.47;;
75090;SDS011;63674;48.048;8.306;2023-01-24T09:36:56;22.27;;;10.90;;
75090;SDS011;63674;48.048;8.306;2023-01-24T09:39:24;9.75;;;4.38;;
75090;SDS011;63674;48.048;8.306;2023-01-24T09:41:55;11.77;;;5.13;;
75090;SDS011;63674;48.048;8.306;2023-01-24T09:44:39;12.57;;;5.95;;
75090;SDS011;63674;48.048;8.306;2023-01-24T09:47:15;11.02;;;5.05;;
75090;SDS011;63674;48.048;8.306;2023-01-24T09:49:51;11.13;;;5.28;;
75090;SDS011;63674;48.048;8.306;2023-01-24T09:52:29;10.75;;;4.75;;
75090;SDS011;63674;48.048;8.306;2023-01-24T09:55:03;12.70;;;5.63;;
75090;SDS011;63674;48.048;8.306;2023-01-24T09:57:42;11.73;;;5.40;;
75090;SDS011;63674;48.048;8.306;2023-01-24T10:00:20;12.38;;;5.32;;
75090;SDS011;63674;48.048;8.306;2023-01-24T10:02:53;14.90;;;6.60;;
75090;SDS011;63674;48.048;8.306;2023-01-24T10:05:25;16.88;;;7.32;;
75090;SDS011;63674;48.048;8.306;2023-01-24T10:08:16;16.30;;;7.55;;
75090;SDS011;63674;48.048;8.306;2023-01-24T10:10:59;14.02;;;6.45;;
75090;SDS011;63674;48.048;8.306;2023-01-24T10:13:52;13.70;;;5.88;;
75090;SDS011;63674;48.048;8.306;2023-01-24T10:17:01;14.27;;;6.45;;
75090;SDS011;63674;48.048;8.306;2023-01-24T10:20:00;13.43;;;6.00;;
75090;SDS011;63674;48.048;8.306;2023-01-24T10:22:55;14.50;;;6.20;;
75090;SDS011;63674;48.048;8.306;2023-01-24T10:25:40;17.45;;;7.43;;
75090;SDS011;63674;48.048;8.306;2023-01-24T10:28:26;15.30;;;6.57;;
75090;SDS011;63674;48.048;8.306;2023-01-24T10:30:58;15.32;;;7.30;;
75090;SDS011;63674;48.048;8.306;2023-01-24T10:33:35;13.93;;;6.35;;
75090;SDS011;63674;48.048;8.306;2023-01-24T10:36:09;16.25;;;6.85;;
75090;SDS011;63674;48.048;8.306;2023-01-24T10:38:43;15.23;;;6.25;;
75090;SDS011;63674;48.048;8.306;2023-01-24T10:41:17;16.30;;;6.97;;
75090;SDS011;63674;48.048;8.306;2023-01-24T10:43:50;16.83;;;7.05;;
75090;SDS011;63674;48.048;8.306;2023-01-24T10:46:30;15.90;;;6.85;;
75090;SDS011;63674;48.048;8.306;2023-01-24T10:49:18;17.83;;;7.35;;
75090;SDS011;63674;48.048;8.306;2023-01-24T10:52:09;17.20;;;7.80;;
75090;SDS011;63674;48.048;8.306;2023-01-24T10:54:42;18.67;;;7.28;;
75090;SDS011;63674;48.048;8.306;2023-01-24T10:57:18;15.23;;;6.75;;
75090;SDS011;63674;48.048;8.306;2023-01-24T11:00:16;13.35;;;6.10;;
75090;SDS011;63674;48.048;8.306;2023-01-24T11:02:54;16.50;;;6.97;;
75090;SDS011;63674;48.048;8.306;2023-01-24T11:05:24;18.40;;;7.80;;
75090;SDS011;63674;48.048;8.306;2023-01-24T11:08:03;15.88;;;6.18;;
75090;SDS011;63674;48.048;8.306;2023-01-24T11:10:34;14.15;;;6.20;;
75090;SDS011;63674;48.048;8.306;2023-01-24T11:13:25;15.30;;;6.80;;
75090;SDS011;63674;48.048;8.306;2023-01-24T11:16:03;19.60;;;7.40;;
75090;SDS011;63674;48.048;8.306;2023-01-24T11:18:34;19.75;;;8.00;;
75090;SDS011;63674;48.048;8.306;2023-01-24T11:21:12;16.75;;;7.22;;
75090;SDS011;63674;48.048;8.306;2023-01-24T11:23:43;17.13;;;7.65;;
75090;SDS011;63674;48.048;8.306;2023-01-24T11:29:03;17.55;;;7.47;;
75090;SDS011;63674;48.048;8.306;2023-01-24T11:31:35;19.30;;;8.63;;
75090;SDS011;63674;48.048;8.306;2023-01-24T11:37:14;21.90;;;10.30;;
75090;SDS011;63674;48.048;8.306;2023-01-24T11:40:12;15.52;;;6.93;;
75090;SDS011;63674;48.048;8.306;2023-01-24T11:42:52;16.08;;;6.72;;
75090;SDS011;63674;48.048;8.306;2023-01-24T11:45:38;19.08;;;8.35;;
75090;SDS011;63674;48.048;8.306;2023-01-24T11:48:28;17.52;;;7.57;;
75090;SDS011;63674;48.048;8.306;2023-01-24T11:51:08;23.88;;;10.90;;
75090;SDS011;63674;48.048;8.306;2023-01-24T11:53:54;22.08;;;9.57;;
75090;SDS011;63674;48.048;8.306;2023-01-24T11:57:05;16.65;;;7.63;;
75090;SDS011;63674;48.048;8.306;2023-01-24T11:59:53;18.70;;;8.15;;
75090;SDS011;63674;48.048;8.306;2023-01-24T12:02:39;14.52;;;6.95;;
75090;SDS011;63674;48.048;8.306;2023-01-24T12:05:39;16.95;;;7.60;;
75090;SDS011;63674;48.048;8.306;2023-01-24T12:08:30;18.50;;;7.97;;
75090;SDS011;63674;48.048;8.306;2023-01-24T12:11:12;19.38;;;7.38;;
75090;SDS011;63674;48.048;8.306;2023-01-24T12:14:09;103.43;;;29.65;;
75090;SDS011;63674;48.048;8.306;2023-01-24T12:17:10;39.60;;;14.63;;
75090;SDS011;63674;48.048;8.306;2023-01-24T12:19:57;35.08;;;13.85;;
75090;SDS011;63674;48.048;8.306;2023-01-24T12:22:57;41.83;;;16.38;;
75090;SDS011;63674;48.048;8.306;2023-01-24T12:25:32;33.72;;;13.38;;
75090;SDS011;63674;48.048;8.306;2023-01-24T12:28:04;22.10;;;9.23;;
75090;SDS011;63674;48.048;8.306;2023-01-24T12:30:34;24.92;;;9.77;;
75090;SDS011;63674;48.048;8.306;2023-01-24T12:33:10;25.77;;;10.18;;
75090;SDS011;63674;48.048;8.306;2023-01-24T12:35:53;21.38;;;8.02;;
75090;SDS011;63674;48.048;8.306;2023-01-24T12:38:28;19.75;;;8.13;;
75090;SDS011;63674;48.048;8.306;2023-01-24T12:41:06;19.23;;;8.90;;
75090;SDS011;63674;48.048;8.306;2023-01-24T12:43:46;18.77;;;8.57;;
75090;SDS011;63674;48.048;8.306;2023-01-24T12:46:25;18.65;;;8.00;;
75090;SDS011;63674;48.048;8.306;2023-01-24T12:49:02;20.75;;;8.25;;
75090;SDS011;63674;48.048;8.306;2023-01-24T12:52:07;22.20;;;9.10;;
75090;SDS011;63674;48.048;8.306;2023-01-24T12:54:48;19.63;;;8.20;;
75090;SDS011;63674;48.048;8.306;2023-01-24T12:57:22;19.35;;;8.63;;
75090;SDS011;63674;48.048;8.306;2023-01-24T12:59:57;15.30;;;7.47;;
75090;SDS011;63674;48.048;8.306;2023-01-24T13:02:39;20.60;;;9.55;;
75090;SDS011;63674;48.048;8.306;2023-01-24T13:05:26;22.13;;;8.68;;
75090;SDS011;63674;48.048;8.306;2023-01-24T13:08:10;39.63;;;12.82;;
75090;SDS011;63674;48.048;8.306;2023-01-24T13:10:54;23.05;;;9.88;;
75090;SDS011;63674;48.048;8.306;2023-01-24T13:13:36;24.50;;;11.15;;
75090;SDS011;63674;48.048;8.306;2023-01-24T13:16:17;33.08;;;17.95;;
75090;SDS011;63674;48.048;8.306;2023-01-24T13:19:03;24.77;;;11.50;;
75090;SDS011;63674;48.048;8.306;2023-01-24T13:21:43;23.27;;;9.50;;
75090;SDS011;63674;48.048;8.306;2023-01-24T13:27:19;20.83;;;9.85;;
75090;SDS011;63674;48.048;8.306;2023-01-24T13:30:05;19.35;;;9.27;;
75090;SDS011;63674;48.048;8.306;2023-01-24T13:32:59;19.52;;;8.40;;
75090;SDS011;63674;48.048;8.306;2023-01-24T13:35:30;18.20;;;8.05;;
75090;SDS011;63674;48.048;8.306;2023-01-24T13:38:02;20.35;;;8.30;;
75090;SDS011;63674;48.048;8.306;2023-01-24T13:40:34;38.33;;;13.43;;
75090;SDS011;63674;48.048;8.306;2023-01-24T13:43:03;27.33;;;10.10;;
75090;SDS011;63674;48.048;8.306;2023-01-24T13:46:14;26.75;;;11.68;;
75090;SDS011;63674;48.048;8.306;2023-01-24T13:48:44;21.70;;;9.27;;
75090;SDS011;63674;48.048;8.306;2023-01-24T13:51:34;20.75;;;8.93;;
75090;SDS011;63674;48.048;8.306;2023-01-24T13:54:19;23.33;;;9.70;;
75090;SDS011;63674;48.048;8.306;2023-01-24T13:57:14;24.25;;;10.18;;
75090;SDS011;63674;48.048;8.306;2023-01-24T14:00:01;21.45;;;8.85;;
75090;SDS011;63674;48.048;8.306;2023-01-24T14:02:54;18.33;;;8.25;;
75090;SDS011;63674;48.048;8.306;2023-01-24T14:05:52;20.88;;;8.80;;
75090;SDS011;63674;48.048;8.306;2023-01-24T14:08:32;22.02;;;9.60;;
75090;SDS011;63674;48.048;8.306;2023-01-24T14:11:21;20.63;;;9.27;;
75090;SDS011;63674;48.048;8.306;2023-01-24T14:19:55;19.60;;;8.13;;
75090;SDS011;63674;48.048;8.306;2023-01-24T14:22:31;23.70;;;11.15;;
75090;SDS011;63674;48.048;8.306;2023-01-24T14:25:17;24.27;;;12.40;;
75090;SDS011;63674;48.048;8.306;2023-01-24T14:28:02;20.77;;;9.80;;
75090;SDS011;63674;48.048;8.306;2023-01-24T14:30:45;19.23;;;8.43;;
75090;SDS011;63674;48.048;8.306;2023-01-24T14:33:23;33.28;;;14.10;;
75090;SDS011;63674;48.048;8.306;2023-01-24T14:36:05;32.13;;;14.07;;
75090;SDS011;63674;48.048;8.306;2023-01-24T14:38:43;21.13;;;8.50;;
75090;SDS011;63674;48.048;8.306;2023-01-24T14:41:16;22.20;;;9.00;;
75090;SDS011;63674;48.048;8.306;2023-01-24T14:43:49;20.40;;;8.45;;
75090;SDS011;63674;48.048;8.306;2023-01-24T14:46:22;23.10;;;8.52;;
75090;SDS011;63674;48.048;8.306;2023-01-24T14:48:51;19.73;;;8.40;;
75090;SDS011;63674;48.048;8.306;2023-01-24T14:51:21;23.10;;;9.52;;
75090;SDS011;63674;48.048;8.306;2023-01-24T14:53:52;21.05;;;8.85;;
75090;SDS011;63674;48.048;8.306;2023-01-24T14:56:21;21.75;;;8.63;;
75090;SDS011;63674;48.048;8.306;2023-01-24T14:58:50;34.13;;;15.40;;
75090;SDS011;63674;48.048;8.306;2023-01-24T15:01:28;29.30;;;14.95;;
75090;SDS011;63674;48.048;8.306;2023-01-24T15:04:01;24.02;;;9.88;;
75090;SDS011;63674;48.048;8.306;2023-01-24T15:06:31;42.53;;;20.27;;
75090;SDS011;63674;48.048;8.306;2023-01-24T15:09:01;23.65;;;9.73;;
75090;SDS011;63674;48.048;8.306;2023-01-24T15:11:31;25.02;;;9.05;;
75090;SDS011;63674;48.048;8.306;2023-01-24T15:14:03;27.60;;;11.40;;
75090;SDS011;63674;48.048;8.306;2023-01-24T15:16:36;34.17;;;14.85;;
75090;SDS011;63674;48.048;8.306;2023-01-24T15:19:15;23.30;;;9.82;;
75090;SDS011;63674;48.048;8.306;2023-01-24T15:21:48;25.08;;;11.10;;
75090;SDS011;63674;48.048;8.306;2023-01-24T15:24:20;22.33;;;9.57;;
75090;SDS011;63674;48.048;8.306;2023-01-24T15:26:52;23.35;;;10.60;;
75090;SDS011;63674;48.048;8.306;2023-01-24T15:29:41;25.45;;;12.20;;
75090;SDS011;63674;48.048;8.306;2023-01-24T15:32:27;21.33;;;9.73;;